aviador You're here:

LFLX Decoded Metar

CHATEAUROUX in FRANCE
Report Time2017-08-18 23:30:00
UTC Time2017-08-18 23:48:35
Flight Rules vfr VFR
Wind270° at 07 kt
W.Decomp.*RWY 21: 3.5 kt HW 6.1 kt RCW
W.Rank270° ranks 8
Current wind is below 270° avg. (8.3)
Visibility9999 m
Phenomena:N/A
Clouds:N/A
Expected CloudBase > 1,200 ft AGL from Temp-Dew spread
CeilingNone
Temp14°C (ISA 0)
Dew Point11°C (82% RH)
AAT11.8°C
QNH1021 hPa
Density Alt427 ft
Elevation515 ft
Report Wrong Elevation
Raw Report
LFLX 182330Z AUTO 27007KT CAVOK 14/11 Q1021 NOSIG=

Extra information for LFLX:More info

Metar Taf Metar & Taf Last 4 Metars F.Rules Stats Wind Profile Meteogram Temp Stats Airport Information Weather charts Add Link Nearby VenuesMetar ALERT Operation Metar Decoded Social comments